sensor_id;sensor_type;location;lat;lon;timestamp;pressure;altitude;pressure_sealevel;temperature;humidity
58785;BME280;44557;51.862;19.378;2022-10-23T00:00:36;99350.38;;;13.34;97.80
58785;BME280;44557;51.862;19.378;2022-10-23T00:01:57;99355.92;;;13.34;98.02
58785;BME280;44557;51.862;19.378;2022-10-23T00:02:59;99356.98;;;13.35;97.90
58785;BME280;44557;51.862;19.378;2022-10-23T00:04:05;99363.45;;;13.35;97.65
58785;BME280;44557;51.862;19.378;2022-10-23T00:05:07;99360.90;;;13.31;97.91
58785;BME280;44557;51.862;19.378;2022-10-23T00:06:09;99360.13;;;13.31;97.76
58785;BME280;44557;51.862;19.378;2022-10-23T00:07:11;99359.13;;;13.32;97.74
58785;BME280;44557;51.862;19.378;2022-10-23T00:08:12;99361.56;;;13.32;97.76
58785;BME280;44557;51.862;19.378;2022-10-23T00:09:18;99364.28;;;13.32;97.70
58785;BME280;44557;51.862;19.378;2022-10-23T00:10:21;99361.80;;;13.35;97.50
58785;BME280;44557;51.862;19.378;2022-10-23T00:11:25;99361.73;;;13.36;97.36
58785;BME280;44557;51.862;19.378;2022-10-23T00:12:27;99362.86;;;13.33;97.56
58785;BME280;44557;51.862;19.378;2022-10-23T00:13:29;99360.52;;;13.34;97.39
58785;BME280;44557;51.862;19.378;2022-10-23T00:14:30;99365.42;;;13.38;97.24
58785;BME280;44557;51.862;19.378;2022-10-23T00:15:34;99360.28;;;13.35;97.40
58785;BME280;44557;51.862;19.378;2022-10-23T00:16:36;99360.70;;;13.32;97.44
58785;BME280;44557;51.862;19.378;2022-10-23T00:17:38;99361.27;;;13.29;97.55
58785;BME280;44557;51.862;19.378;2022-10-23T00:18:39;99360.95;;;13.32;97.66
58785;BME280;44557;51.862;19.378;2022-10-23T00:19:41;99364.95;;;13.34;97.49
58785;BME280;44557;51.862;19.378;2022-10-23T00:20:42;99362.86;;;13.28;97.59
58785;BME280;44557;51.862;19.378;2022-10-23T00:21:44;99369.59;;;13.30;97.61
58785;BME280;44557;51.862;19.378;2022-10-23T00:22:45;99366.35;;;13.26;97.65
58785;BME280;44557;51.862;19.378;2022-10-23T00:23:47;99370.91;;;13.32;97.53
58785;BME280;44557;51.862;19.378;2022-10-23T00:24:48;99368.75;;;13.32;97.42
58785;BME280;44557;51.862;19.378;2022-10-23T00:25:50;99373.72;;;13.31;97.21
58785;BME280;44557;51.862;19.378;2022-10-23T00:26:51;99371.13;;;13.32;97.30
58785;BME280;44557;51.862;19.378;2022-10-23T00:27:53;99372.80;;;13.32;97.40
58785;BME280;44557;51.862;19.378;2022-10-23T00:28:54;99377.39;;;13.32;97.23
58785;BME280;44557;51.862;19.378;2022-10-23T00:29:56;99379.70;;;13.33;97.18
58785;BME280;44557;51.862;19.378;2022-10-23T00:31:00;99380.60;;;13.31;97.23
58785;BME280;44557;51.862;19.378;2022-10-23T00:32:03;99380.86;;;13.32;97.07
58785;BME280;44557;51.862;19.378;2022-10-23T00:33:05;99381.04;;;13.29;97.35
58785;BME280;44557;51.862;19.378;2022-10-23T00:34:06;99378.42;;;13.29;97.42
58785;BME280;44557;51.862;19.378;2022-10-23T00:35:08;99379.23;;;13.30;97.12
58785;BME280;44557;51.862;19.378;2022-10-23T00:36:12;99381.23;;;13.30;97.18
58785;BME280;44557;51.862;19.378;2022-10-23T00:37:15;99380.19;;;13.26;97.37
58785;BME280;44557;51.862;19.378;2022-10-23T00:38:16;99381.10;;;13.28;97.32
58785;BME280;44557;51.862;19.378;2022-10-23T00:39:18;99381.50;;;13.28;97.31
58785;BME280;44557;51.862;19.378;2022-10-23T00:40:19;99380.88;;;13.25;97.27
58785;BME280;44557;51.862;19.378;2022-10-23T00:41:27;99383.27;;;13.26;97.55
58785;BME280;44557;51.862;19.378;2022-10-23T00:42:28;99381.44;;;13.26;97.56
58785;BME280;44557;51.862;19.378;2022-10-23T00:43:30;99385.54;;;13.25;97.50
58785;BME280;44557;51.862;19.378;2022-10-23T00:45:34;99385.46;;;13.26;97.58
58785;BME280;44557;51.862;19.378;2022-10-23T00:46:37;99385.38;;;13.28;97.58
58785;BME280;44557;51.862;19.378;2022-10-23T00:47:39;99382.33;;;13.30;97.21
58785;BME280;44557;51.862;19.378;2022-10-23T00:48:40;99379.70;;;13.30;97.41
58785;BME280;44557;51.862;19.378;2022-10-23T00:49:42;99381.11;;;13.33;97.41
58785;BME280;44557;51.862;19.378;2022-10-23T00:50:45;99381.81;;;13.32;97.22
58785;BME280;44557;51.862;19.378;2022-10-23T00:51:55;99379.29;;;13.32;97.11
58785;BME280;44557;51.862;19.378;2022-10-23T00:52:59;99381.39;;;13.31;97.35
58785;BME280;44557;51.862;19.378;2022-10-23T00:54:02;99380.41;;;13.29;97.21
58785;BME280;44557;51.862;19.378;2022-10-23T00:55:05;99379.39;;;13.30;97.24
58785;BME280;44557;51.862;19.378;2022-10-23T00:56:06;99383.42;;;13.30;97.27
58785;BME280;44557;51.862;19.378;2022-10-23T00:57:13;99384.73;;;13.27;97.11
58785;BME280;44557;51.862;19.378;2022-10-23T00:58:18;99382.58;;;13.27;97.47
58785;BME280;44557;51.862;19.378;2022-10-23T00:59:20;99386.24;;;13.29;97.32
58785;BME280;44557;51.862;19.378;2022-10-23T01:00:25;99386.77;;;13.31;97.20
58785;BME280;44557;51.862;19.378;2022-10-23T01:01:26;99386.48;;;13.28;96.96
58785;BME280;44557;51.862;19.378;2022-10-23T01:02:28;99385.73;;;13.30;97.04
58785;BME280;44557;51.862;19.378;2022-10-23T01:03:30;99391.77;;;13.32;96.98
58785;BME280;44557;51.862;19.378;2022-10-23T01:04:32;99389.01;;;13.29;96.87
58785;BME280;44557;51.862;19.378;2022-10-23T01:05:48;99389.38;;;13.27;97.00
58785;BME280;44557;51.862;19.378;2022-10-23T01:08:00;99388.94;;;13.25;96.75
58785;BME280;44557;51.862;19.378;2022-10-23T01:09:14;99390.64;;;13.23;97.03
58785;BME280;44557;51.862;19.378;2022-10-23T01:10:51;99391.23;;;13.25;96.92
58785;BME280;44557;51.862;19.378;2022-10-23T01:11:56;99388.90;;;13.23;96.43
58785;BME280;44557;51.862;19.378;2022-10-23T01:14:28;99399.91;;;13.21;96.75
58785;BME280;44557;51.862;19.378;2022-10-23T01:16:10;99401.33;;;13.17;96.69
58785;BME280;44557;51.862;19.378;2022-10-23T01:17:30;99403.27;;;13.15;96.70
58785;BME280;44557;51.862;19.378;2022-10-23T01:18:50;99402.42;;;13.17;96.54
58785;BME280;44557;51.862;19.378;2022-10-23T01:20:31;99408.75;;;13.13;96.49
58785;BME280;44557;51.862;19.378;2022-10-23T01:21:53;99409.83;;;13.12;96.65
58785;BME280;44557;51.862;19.378;2022-10-23T01:25:04;99406.09;;;13.11;96.75
58785;BME280;44557;51.862;19.378;2022-10-23T01:27:37;99407.52;;;13.08;97.13
58785;BME280;44557;51.862;19.378;2022-10-23T01:28:48;99405.13;;;13.10;96.86
58785;BME280;44557;51.862;19.378;2022-10-23T01:30:00;99405.08;;;13.11;96.93
58785;BME280;44557;51.862;19.378;2022-10-23T01:31:07;99404.83;;;13.14;97.02
58785;BME280;44557;51.862;19.378;2022-10-23T01:32:15;99399.89;;;13.06;97.19
58785;BME280;44557;51.862;19.378;2022-10-23T01:33:24;99400.86;;;13.10;96.92
58785;BME280;44557;51.862;19.378;2022-10-23T01:34:40;99401.15;;;13.09;96.96
58785;BME280;44557;51.862;19.378;2022-10-23T01:35:48;99409.73;;;13.08;97.27
58785;BME280;44557;51.862;19.378;2022-10-23T01:36:51;99404.86;;;13.09;96.89
58785;BME280;44557;51.862;19.378;2022-10-23T01:38:01;99402.67;;;13.10;96.95
58785;BME280;44557;51.862;19.378;2022-10-23T01:39:11;99400.73;;;13.08;96.78
58785;BME280;44557;51.862;19.378;2022-10-23T01:40:24;99401.06;;;13.12;96.54
58785;BME280;44557;51.862;19.378;2022-10-23T01:41:46;99404.27;;;13.11;96.77
58785;BME280;44557;51.862;19.378;2022-10-23T01:42:54;99403.45;;;13.13;96.62
58785;BME280;44557;51.862;19.378;2022-10-23T01:44:10;99404.69;;;13.12;96.78
58785;BME280;44557;51.862;19.378;2022-10-23T01:45:50;99403.75;;;13.13;96.76
58785;BME280;44557;51.862;19.378;2022-10-23T01:46:54;99402.18;;;13.16;96.84
58785;BME280;44557;51.862;19.378;2022-10-23T01:47:56;99402.92;;;13.11;96.95
58785;BME280;44557;51.862;19.378;2022-10-23T01:48:59;99402.84;;;13.14;96.95
58785;BME280;44557;51.862;19.378;2022-10-23T01:50:05;99399.40;;;13.12;96.88
58785;BME280;44557;51.862;19.378;2022-10-23T01:51:09;99404.42;;;13.14;96.84
58785;BME280;44557;51.862;19.378;2022-10-23T01:52:15;99401.40;;;13.13;96.91
58785;BME280;44557;51.862;19.378;2022-10-23T01:53:18;99400.27;;;13.12;97.02
58785;BME280;44557;51.862;19.378;2022-10-23T01:54:24;99399.80;;;13.13;96.92
58785;BME280;44557;51.862;19.378;2022-10-23T01:55:27;99399.55;;;13.15;96.84
58785;BME280;44557;51.862;19.378;2022-10-23T01:56:32;99401.08;;;13.13;96.68
58785;BME280;44557;51.862;19.378;2022-10-23T01:57:36;99396.38;;;13.18;96.80
58785;BME280;44557;51.862;19.378;2022-10-23T01:58:42;99399.29;;;13.21;96.52
58785;BME280;44557;51.862;19.378;2022-10-23T01:59:52;99397.36;;;13.23;96.49
58785;BME280;44557;51.862;19.378;2022-10-23T02:00:58;99402.89;;;13.23;96.40
58785;BME280;44557;51.862;19.378;2022-10-23T02:02:02;99397.80;;;13.25;96.56
58785;BME280;44557;51.862;19.378;2022-10-23T02:03:05;99400.53;;;13.21;96.39
58785;BME280;44557;51.862;19.378;2022-10-23T02:04:12;99399.83;;;13.20;96.89
58785;BME280;44557;51.862;19.378;2022-10-23T02:05:17;99400.36;;;13.20;96.66
58785;BME280;44557;51.862;19.378;2022-10-23T02:06:21;99397.04;;;13.16;96.67
58785;BME280;44557;51.862;19.378;2022-10-23T02:07:23;99397.59;;;13.12;96.99
58785;BME280;44557;51.862;19.378;2022-10-23T02:08:24;99404.96;;;13.14;97.12
58785;BME280;44557;51.862;19.378;2022-10-23T02:09:26;99405.46;;;13.15;97.13
58785;BME280;44557;51.862;19.378;2022-10-23T02:10:38;99400.40;;;13.14;97.03
58785;BME280;44557;51.862;19.378;2022-10-23T02:11:52;99403.55;;;13.14;97.12
58785;BME280;44557;51.862;19.378;2022-10-23T02:13:09;99403.73;;;13.14;97.13
58785;BME280;44557;51.862;19.378;2022-10-23T02:14:49;99402.79;;;13.19;96.86
58785;BME280;44557;51.862;19.378;2022-10-23T02:15:52;99400.58;;;13.19;96.93
58785;BME280;44557;51.862;19.378;2022-10-23T02:17:10;99400.50;;;13.22;96.86
58785;BME280;44557;51.862;19.378;2022-10-23T02:20:01;99400.02;;;13.19;96.68
58785;BME280;44557;51.862;19.378;2022-10-23T02:21:13;99404.30;;;13.19;96.65
58785;BME280;44557;51.862;19.378;2022-10-23T02:23:34;99411.14;;;13.17;96.79
58785;BME280;44557;51.862;19.378;2022-10-23T02:24:57;99406.60;;;13.16;96.88
58785;BME280;44557;51.862;19.378;2022-10-23T02:27:10;99409.74;;;13.18;96.69
58785;BME280;44557;51.862;19.378;2022-10-23T02:28:15;99414.11;;;13.19;96.54
58785;BME280;44557;51.862;19.378;2022-10-23T02:30:29;99411.73;;;13.19;96.66
58785;BME280;44557;51.862;19.378;2022-10-23T02:31:32;99415.21;;;13.16;96.66
58785;BME280;44557;51.862;19.378;2022-10-23T02:32:35;99416.28;;;13.14;97.02
58785;BME280;44557;51.862;19.378;2022-10-23T02:33:38;99417.30;;;13.17;97.02
58785;BME280;44557;51.862;19.378;2022-10-23T02:34:40;99417.61;;;13.21;96.70
58785;BME280;44557;51.862;19.378;2022-10-23T02:35:42;99410.55;;;13.20;96.42
58785;BME280;44557;51.862;19.378;2022-10-23T02:36:43;99409.59;;;13.19;96.82
58785;BME280;44557;51.862;19.378;2022-10-23T02:37:56;99412.19;;;13.15;96.74
58785;BME280;44557;51.862;19.378;2022-10-23T02:38:58;99413.42;;;13.17;96.76
58785;BME280;44557;51.862;19.378;2022-10-23T02:40:00;99413.92;;;13.18;96.68
58785;BME280;44557;51.862;19.378;2022-10-23T02:42:18;99412.60;;;13.16;96.61
58785;BME280;44557;51.862;19.378;2022-10-23T02:43:27;99410.59;;;13.18;96.78
58785;BME280;44557;51.862;19.378;2022-10-23T02:46:16;99407.17;;;13.14;96.71
58785;BME280;44557;51.862;19.378;2022-10-23T02:48:00;99405.27;;;13.13;96.65
58785;BME280;44557;51.862;19.378;2022-10-23T02:49:15;99410.30;;;13.09;96.93
58785;BME280;44557;51.862;19.378;2022-10-23T02:54:18;99417.38;;;13.11;96.91
58785;BME280;44557;51.862;19.378;2022-10-23T02:59:53;99419.27;;;13.07;97.30
58785;BME280;44557;51.862;19.378;2022-10-23T03:01:04;99420.54;;;13.11;96.96
58785;BME280;44557;51.862;19.378;2022-10-23T03:03:21;99418.69;;;13.09;97.19
58785;BME280;44557;51.862;19.378;2022-10-23T03:04:25;99419.28;;;13.07;97.29
58785;BME280;44557;51.862;19.378;2022-10-23T03:05:33;99417.14;;;13.07;97.37
58785;BME280;44557;51.862;19.378;2022-10-23T03:06:36;99416.48;;;13.12;97.25
58785;BME280;44557;51.862;19.378;2022-10-23T03:07:38;99417.30;;;13.13;97.28
58785;BME280;44557;51.862;19.378;2022-10-23T03:08:42;99420.63;;;13.15;97.10
58785;BME280;44557;51.862;19.378;2022-10-23T03:09:44;99420.48;;;13.11;97.04
58785;BME280;44557;51.862;19.378;2022-10-23T03:10:45;99421.73;;;13.08;97.13
58785;BME280;44557;51.862;19.378;2022-10-23T03:11:47;99424.68;;;13.11;97.29
58785;BME280;44557;51.862;19.378;2022-10-23T03:12:49;99426.62;;;13.13;97.16
58785;BME280;44557;51.862;19.378;2022-10-23T03:13:51;99427.21;;;13.16;97.25
58785;BME280;44557;51.862;19.378;2022-10-23T03:14:52;99426.81;;;13.15;96.97
58785;BME280;44557;51.862;19.378;2022-10-23T03:15:54;99428.61;;;13.11;97.26
58785;BME280;44557;51.862;19.378;2022-10-23T03:16:55;99429.19;;;13.12;97.52
58785;BME280;44557;51.862;19.378;2022-10-23T03:17:57;99431.80;;;13.16;97.21
58785;BME280;44557;51.862;19.378;2022-10-23T03:18:58;99432.48;;;13.14;97.41
58785;BME280;44557;51.862;19.378;2022-10-23T03:20:00;99433.13;;;13.15;96.99
58785;BME280;44557;51.862;19.378;2022-10-23T03:21:02;99432.26;;;13.18;96.91
58785;BME280;44557;51.862;19.378;2022-10-23T03:22:03;99434.76;;;13.13;97.27
58785;BME280;44557;51.862;19.378;2022-10-23T03:23:05;99436.89;;;13.14;97.34
58785;BME280;44557;51.862;19.378;2022-10-23T03:24:06;99438.05;;;13.12;97.43
58785;BME280;44557;51.862;19.378;2022-10-23T03:25:08;99436.31;;;13.12;97.33
58785;BME280;44557;51.862;19.378;2022-10-23T03:26:10;99438.23;;;13.14;97.32
58785;BME280;44557;51.862;19.378;2022-10-23T03:27:12;99438.07;;;13.13;97.27
58785;BME280;44557;51.862;19.378;2022-10-23T03:28:13;99437.84;;;13.13;97.38
58785;BME280;44557;51.862;19.378;2022-10-23T03:29:15;99437.98;;;13.13;97.47
58785;BME280;44557;51.862;19.378;2022-10-23T03:30:16;99436.36;;;13.11;97.41
58785;BME280;44557;51.862;19.378;2022-10-23T03:31:18;99441.36;;;13.15;97.40
58785;BME280;44557;51.862;19.378;2022-10-23T03:32:19;99441.64;;;13.14;97.30
58785;BME280;44557;51.862;19.378;2022-10-23T03:33:21;99436.81;;;13.17;97.39
58785;BME280;44557;51.862;19.378;2022-10-23T03:34:23;99429.91;;;13.13;97.11
58785;BME280;44557;51.862;19.378;2022-10-23T03:35:24;99433.77;;;13.08;97.33
58785;BME280;44557;51.862;19.378;2022-10-23T03:36:26;99435.98;;;13.09;97.63
58785;BME280;44557;51.862;19.378;2022-10-23T03:37:27;99438.19;;;13.08;97.46
58785;BME280;44557;51.862;19.378;2022-10-23T03:38:29;99433.10;;;13.13;97.65
58785;BME280;44557;51.862;19.378;2022-10-23T03:39:30;99434.03;;;13.12;97.35
58785;BME280;44557;51.862;19.378;2022-10-23T03:40:32;99431.63;;;13.15;97.31
58785;BME280;44557;51.862;19.378;2022-10-23T03:41:33;99433.02;;;13.14;97.39
58785;BME280;44557;51.862;19.378;2022-10-23T03:42:35;99434.29;;;13.11;97.44
58785;BME280;44557;51.862;19.378;2022-10-23T03:43:36;99433.70;;;13.12;97.44
58785;BME280;44557;51.862;19.378;2022-10-23T03:44:38;99436.52;;;13.14;97.49
58785;BME280;44557;51.862;19.378;2022-10-23T03:45:39;99439.24;;;13.12;97.15
58785;BME280;44557;51.862;19.378;2022-10-23T03:46:41;99440.02;;;13.11;97.38
58785;BME280;44557;51.862;19.378;2022-10-23T03:47:42;99440.52;;;13.13;97.24
58785;BME280;44557;51.862;19.378;2022-10-23T03:48:45;99442.92;;;13.12;97.41
58785;BME280;44557;51.862;19.378;2022-10-23T03:49:46;99443.31;;;13.15;97.59
58785;BME280;44557;51.862;19.378;2022-10-23T03:50:48;99442.48;;;13.17;97.35
58785;BME280;44557;51.862;19.378;2022-10-23T03:51:49;99448.51;;;13.20;97.18
58785;BME280;44557;51.862;19.378;2022-10-23T03:52:53;99444.02;;;13.18;97.23
58785;BME280;44557;51.862;19.378;2022-10-23T03:53:54;99446.75;;;13.16;97.33
58785;BME280;44557;51.862;19.378;2022-10-23T03:54:56;99443.88;;;13.15;97.15
58785;BME280;44557;51.862;19.378;2022-10-23T03:55:57;99448.42;;;13.13;97.37
58785;BME280;44557;51.862;19.378;2022-10-23T03:56:59;99448.81;;;13.13;97.51
58785;BME280;44557;51.862;19.378;2022-10-23T03:58:01;99450.08;;;13.16;97.59
58785;BME280;44557;51.862;19.378;2022-10-23T03:59:02;99451.77;;;13.14;97.65
58785;BME280;44557;51.862;19.378;2022-10-23T04:00:05;99449.23;;;13.10;97.75
58785;BME280;44557;51.862;19.378;2022-10-23T04:01:07;99450.19;;;13.11;98.03
58785;BME280;44557;51.862;19.378;2022-10-23T04:02:09;99451.22;;;13.15;97.39
58785;BME280;44557;51.862;19.378;2022-10-23T04:03:10;99453.61;;;13.16;97.55
58785;BME280;44557;51.862;19.378;2022-10-23T04:04:13;99455.36;;;13.12;97.56
58785;BME280;44557;51.862;19.378;2022-10-23T04:05:15;99454.64;;;13.12;97.83
58785;BME280;44557;51.862;19.378;2022-10-23T04:06:17;99456.86;;;13.09;97.79
58785;BME280;44557;51.862;19.378;2022-10-23T04:07:18;99455.08;;;13.07;98.26
58785;BME280;44557;51.862;19.378;2022-10-23T04:08:20;99453.06;;;13.06;98.10
58785;BME280;44557;51.862;19.378;2022-10-23T04:09:21;99455.05;;;13.06;98.16
58785;BME280;44557;51.862;19.378;2022-10-23T04:10:23;99454.02;;;13.08;98.24
58785;BME280;44557;51.862;19.378;2022-10-23T04:11:24;99456.59;;;13.15;97.87
58785;BME280;44557;51.862;19.378;2022-10-23T04:12:26;99457.21;;;13.07;98.07
58785;BME280;44557;51.862;19.378;2022-10-23T04:13:27;99456.45;;;13.08;98.24
58785;BME280;44557;51.862;19.378;2022-10-23T04:14:29;99458.52;;;13.08;98.27
58785;BME280;44557;51.862;19.378;2022-10-23T04:15:30;99459.23;;;13.09;98.06
58785;BME280;44557;51.862;19.378;2022-10-23T04:16:32;99456.50;;;13.07;98.20
58785;BME280;44557;51.862;19.378;2022-10-23T04:17:33;99459.27;;;13.07;98.21
58785;BME280;44557;51.862;19.378;2022-10-23T04:18:35;99456.95;;;13.10;98.20
58785;BME280;44557;51.862;19.378;2022-10-23T04:19:36;99461.39;;;13.07;98.39
58785;BME280;44557;51.862;19.378;2022-10-23T04:20:38;99460.13;;;13.07;98.44
58785;BME280;44557;51.862;19.378;2022-10-23T04:21:39;99458.89;;;13.11;98.15
58785;BME280;44557;51.862;19.378;2022-10-23T04:22:40;99456.55;;;13.13;98.09
58785;BME280;44557;51.862;19.378;2022-10-23T04:23:42;99458.48;;;13.11;97.90
58785;BME280;44557;51.862;19.378;2022-10-23T04:24:44;99453.45;;;13.12;98.06
58785;BME280;44557;51.862;19.378;2022-10-23T04:25:47;99455.59;;;13.09;98.10
58785;BME280;44557;51.862;19.378;2022-10-23T04:26:48;99454.73;;;13.06;98.77
58785;BME280;44557;51.862;19.378;2022-10-23T04:27:50;99455.85;;;13.10;98.40
58785;BME280;44557;51.862;19.378;2022-10-23T04:28:51;99454.34;;;13.13;98.28
58785;BME280;44557;51.862;19.378;2022-10-23T04:29:53;99452.20;;;13.13;98.36
58785;BME280;44557;51.862;19.378;2022-10-23T04:30:55;99453.66;;;13.14;98.18
58785;BME280;44557;51.862;19.378;2022-10-23T04:31:56;99456.27;;;13.14;98.16
58785;BME280;44557;51.862;19.378;2022-10-23T04:32:58;99454.79;;;13.11;98.39
58785;BME280;44557;51.862;19.378;2022-10-23T04:33:59;99455.66;;;13.08;98.35
58785;BME280;44557;51.862;19.378;2022-10-23T04:35:01;99456.38;;;13.15;98.29
58785;BME280;44557;51.862;19.378;2022-10-23T04:36:02;99452.81;;;13.14;98.61
58785;BME280;44557;51.862;19.378;2022-10-23T04:37:04;99453.89;;;13.14;98.26
58785;BME280;44557;51.862;19.378;2022-10-23T04:38:06;99454.86;;;13.18;98.28
58785;BME280;44557;51.862;19.378;2022-10-23T04:39:07;99452.23;;;13.20;97.97
58785;BME280;44557;51.862;19.378;2022-10-23T04:40:09;99454.30;;;13.19;97.92
58785;BME280;44557;51.862;19.378;2022-10-23T04:41:11;99456.31;;;13.23;97.82
58785;BME280;44557;51.862;19.378;2022-10-23T04:42:12;99456.16;;;13.23;97.93
58785;BME280;44557;51.862;19.378;2022-10-23T04:43:14;99458.56;;;13.25;97.75
58785;BME280;44557;51.862;19.378;2022-10-23T04:44:15;99457.33;;;13.26;97.76
58785;BME280;44557;51.862;19.378;2022-10-23T04:45:17;99457.59;;;13.27;97.34
58785;BME280;44557;51.862;19.378;2022-10-23T04:46:18;99456.22;;;13.26;97.70
58785;BME280;44557;51.862;19.378;2022-10-23T04:47:20;99453.66;;;13.24;97.59
58785;BME280;44557;51.862;19.378;2022-10-23T04:48:21;99457.25;;;13.23;97.92
58785;BME280;44557;51.862;19.378;2022-10-23T04:49:23;99461.05;;;13.23;97.80
58785;BME280;44557;51.862;19.378;2022-10-23T04:50:25;99459.39;;;13.23;97.57
58785;BME280;44557;51.862;19.378;2022-10-23T04:51:26;99457.98;;;13.27;97.90
58785;BME280;44557;51.862;19.378;2022-10-23T04:52:28;99459.54;;;13.26;97.90
58785;BME280;44557;51.862;19.378;2022-10-23T04:53:30;99461.11;;;13.29;97.78
58785;BME280;44557;51.862;19.378;2022-10-23T04:54:38;99460.54;;;13.25;97.88
58785;BME280;44557;51.862;19.378;2022-10-23T04:55:47;99458.96;;;13.25;98.21
58785;BME280;44557;51.862;19.378;2022-10-23T04:56:49;99459.12;;;13.25;98.03
58785;BME280;44557;51.862;19.378;2022-10-23T04:57:51;99460.20;;;13.27;97.97
58785;BME280;44557;51.862;19.378;2022-10-23T04:58:53;99460.48;;;13.25;98.08
58785;BME280;44557;51.862;19.378;2022-10-23T04:59:55;99463.19;;;13.26;98.09
58785;BME280;44557;51.862;19.378;2022-10-23T05:00:57;99459.00;;;13.23;98.38
58785;BME280;44557;51.862;19.378;2022-10-23T05:01:58;99457.59;;;13.23;98.24
58785;BME280;44557;51.862;19.378;2022-10-23T05:03:00;99462.98;;;13.21;98.39
58785;BME280;44557;51.862;19.378;2022-10-23T05:04:02;99461.44;;;13.22;98.73
58785;BME280;44557;51.862;19.378;2022-10-23T05:05:04;99461.53;;;13.16;98.93
58785;BME280;44557;51.862;19.378;2022-10-23T05:06:06;99463.80;;;13.19;98.81
58785;BME280;44557;51.862;19.378;2022-10-23T05:07:08;99466.28;;;13.16;99.16
58785;BME280;44557;51.862;19.378;2022-10-23T05:08:09;99466.21;;;13.17;98.92
58785;BME280;44557;51.862;19.378;2022-10-23T05:09:11;99463.24;;;13.15;99.03
58785;BME280;44557;51.862;19.378;2022-10-23T05:10:15;99464.09;;;13.17;99.15
58785;BME280;44557;51.862;19.378;2022-10-23T05:11:17;99467.20;;;13.19;98.97
58785;BME280;44557;51.862;19.378;2022-10-23T05:12:18;99464.14;;;13.19;99.38
58785;BME280;44557;51.862;19.378;2022-10-23T05:13:20;99465.66;;;13.20;99.17
58785;BME280;44557;51.862;19.378;2022-10-23T05:14:22;99464.55;;;13.20;98.96
58785;BME280;44557;51.862;19.378;2022-10-23T05:15:23;99465.39;;;13.22;99.27
58785;BME280;44557;51.862;19.378;2022-10-23T05:16:36;99465.34;;;13.24;98.94
58785;BME280;44557;51.862;19.378;2022-10-23T05:17:40;99463.56;;;13.26;98.99
58785;BME280;44557;51.862;19.378;2022-10-23T05:18:45;99465.88;;;13.27;98.82
58785;BME280;44557;51.862;19.378;2022-10-23T05:19:53;99466.02;;;13.23;99.11
58785;BME280;44557;51.862;19.378;2022-10-23T05:20:59;99463.71;;;13.23;98.91
58785;BME280;44557;51.862;19.378;2022-10-23T05:22:03;99468.80;;;13.27;98.84
58785;BME280;44557;51.862;19.378;2022-10-23T05:23:08;99466.88;;;13.26;98.78
58785;BME280;44557;51.862;19.378;2022-10-23T05:24:10;99467.23;;;13.23;99.21
58785;BME280;44557;51.862;19.378;2022-10-23T05:25:12;99463.75;;;13.27;98.99
58785;BME280;44557;51.862;19.378;2022-10-23T05:26:13;99467.92;;;13.26;99.19
58785;BME280;44557;51.862;19.378;2022-10-23T05:27:15;99466.73;;;13.22;99.18
58785;BME280;44557;51.862;19.378;2022-10-23T05:28:17;99468.52;;;13.25;99.29
58785;BME280;44557;51.862;19.378;2022-10-23T05:29:19;99468.58;;;13.24;99.12
58785;BME280;44557;51.862;19.378;2022-10-23T05:30:20;99471.61;;;13.25;99.35
58785;BME280;44557;51.862;19.378;2022-10-23T05:31:23;99468.84;;;13.29;99.15
58785;BME280;44557;51.862;19.378;2022-10-23T05:32:28;99470.27;;;13.32;98.92
58785;BME280;44557;51.862;19.378;2022-10-23T05:33:32;99467.97;;;13.29;99.00
58785;BME280;44557;51.862;19.378;2022-10-23T05:34:35;99469.80;;;13.29;98.92
58785;BME280;44557;51.862;19.378;2022-10-23T05:35:40;99469.64;;;13.29;98.92
58785;BME280;44557;51.862;19.378;2022-10-23T05:36:43;99472.00;;;13.28;99.10
58785;BME280;44557;51.862;19.378;2022-10-23T05:37:46;99473.05;;;13.29;99.11
58785;BME280;44557;51.862;19.378;2022-10-23T05:38:49;99468.70;;;13.29;98.99
58785;BME280;44557;51.862;19.378;2022-10-23T05:39:51;99474.98;;;13.27;99.19
58785;BME280;44557;51.862;19.378;2022-10-23T05:40:53;99476.27;;;13.28;99.11
58785;BME280;44557;51.862;19.378;2022-10-23T05:41:54;99470.61;;;13.27;99.37
58785;BME280;44557;51.862;19.378;2022-10-23T05:42:56;99473.96;;;13.20;99.55
58785;BME280;44557;51.862;19.378;2022-10-23T05:43:57;99472.45;;;13.24;99.50
58785;BME280;44557;51.862;19.378;2022-10-23T05:44:59;99471.65;;;13.20;99.58
58785;BME280;44557;51.862;19.378;2022-10-23T05:46:03;99472.20;;;13.23;99.77
58785;BME280;44557;51.862;19.378;2022-10-23T05:47:06;99471.72;;;13.23;99.80
58785;BME280;44557;51.862;19.378;2022-10-23T05:48:08;99473.77;;;13.26;99.45
58785;BME280;44557;51.862;19.378;2022-10-23T05:49:09;99473.31;;;13.23;99.42
58785;BME280;44557;51.862;19.378;2022-10-23T05:50:11;99472.35;;;13.23;99.55
58785;BME280;44557;51.862;19.378;2022-10-23T05:51:12;99475.14;;;13.24;99.56
58785;BME280;44557;51.862;19.378;2022-10-23T05:52:20;99476.23;;;13.23;99.68
58785;BME280;44557;51.862;19.378;2022-10-23T05:53:22;99475.09;;;13.25;99.41
58785;BME280;44557;51.862;19.378;2022-10-23T05:54:23;99476.90;;;13.28;99.75
58785;BME280;44557;51.862;19.378;2022-10-23T05:55:25;99478.45;;;13.27;99.50
58785;BME280;44557;51.862;19.378;2022-10-23T05:56:26;99478.17;;;13.25;99.26
58785;BME280;44557;51.862;19.378;2022-10-23T05:57:31;99476.05;;;13.22;99.67
58785;BME280;44557;51.862;19.378;2022-10-23T05:58:33;99476.05;;;13.26;99.69
58785;BME280;44557;51.862;19.378;2022-10-23T05:59:34;99474.29;;;13.25;99.46
58785;BME280;44557;51.862;19.378;2022-10-23T06:00:36;99473.48;;;13.24;99.54
58785;BME280;44557;51.862;19.378;2022-10-23T06:01:37;99475.58;;;13.18;99.66